• Join FlightAware (Why Join?)
  • Login
  • US Flag 
02:07AM EDT


 

Airport Tracker/Info


-or-


 

Live Flight TrackerFlight Track Log ✈ N589H ✈ 24-Mar-2014 ✈ KFLL - KPIE

Flight Track Log - Related Links

Times and Time Zones

All times are in EDT time to prevent confusion due to time zone crossing. See the N589H flight status page for this flight to view local times or setup timezone preferences in your user account.

Time Position Orientation Groundspeed Altitude Reporting Facility
EDT Latitude Longitude Course Direction KTS MPH feet Rate Location/Type
08:49PM 26.0747 -80.1414 57° Northeast 167 192 500  Level Miami Center
08:50PM 26.0986 -80.1003 57° Northeast 178 205 2,300 1,980 Climbing Miami Center
08:50PM 26.1344 -80.0897 15° North 184 212 4,200 1,260 Climbing Miami Center
08:52PM 26.1986 -80.1192 338° Northwest 207 238 5,000 900 Climbing Miami Center
08:53PM 26.2328 -80.1803 302° West 223 257 6,200 1,500 Climbing Miami Center
08:54PM 26.2519 -80.2572 286° West 223 257 8,000 900 Climbing Miami Center
08:55PM 26.2689 -80.3319 284° West 242 278 8,000 960 Level Miami Center
08:56PM 26.2881 -80.4044 286° West 258 297 10,000 1,500 Climbing Miami Center
08:57PM 26.3094 -80.4722 289° West 239 275 11,000 420 Climbing Miami Center
08:58PM 26.3303 -80.5539 286° West 264 304 10,900 900 Descending Miami Center
08:59PM 26.3514 -80.6264 288° West 263 303 12,800 2,040 Climbing Miami Center
09:00PM 26.4025 -80.6697 323° Northwest 231 266 15,000 1,080 Climbing Miami Center
09:01PM 26.4531 -80.7294 313° West 246 283 15,000 -60 Level Miami Center
09:02PM 26.5014 -80.7961 309° West 266 306 14,900 -60 Descending Miami Center
09:03PM 26.5519 -80.8558 313° West 271 312 14,900 600 Level Miami Center
09:04PM 26.5922 -80.9106 309° West 263 303 16,100 960 Climbing Miami Center
09:05PM 26.6386 -80.9703 311° West 263 303 16,900 420 Climbing Miami Center
09:06PM 26.6928 -81.0442 309° West 270 311 17,000 60 Climbing Miami Center
09:07PM 26.7453 -81.1111 311° West 270 311 17,100  Climbing Miami Center
09:08PM 26.7975 -81.1828 309° West 289 333 17,100  Level Miami Center
09:09PM 26.8517 -81.2522 311° West 289 333 17,100  Level Miami Center
09:10PM 26.9019 -81.3194 310° West 289 333 17,100  Level Miami Center
09:11PM 26.9478 -81.3842 308° West 289 333 17,100  Level Miami Center
09:12PM 27.0019 -81.4561 310° West 294 338 17,100 -60 Level Miami Center
09:13PM 27.0619 -81.5353 310° West 299 344 17,000 -60 Descending Miami Center
09:14PM 27.1139 -81.6075 309° West 299 344 17,000  Level Miami Center
09:15PM 27.1658 -81.6797 309° West 299 344 17,100  Climbing Miami Center
09:16PM 27.2178 -81.7472 311° West 299 344 17,000 -60 Descending Miami Center
09:17PM 27.2719 -81.8172 311° West 299 344 17,000 -360 Level Miami Center
09:18PM 27.3217 -81.8847 310° West 293 337 16,300 -900 Descending Miami Center
09:19PM 27.3781 -81.9408 319° Northwest 281 323 15,300 -900 Descending Miami Center
09:20PM 27.4539 -81.9864 332° Northwest 287 330 14,500 -900 Descending Miami Center
09:21PM 27.5231 -82.0317 330° Northwest 292 336 13,600 -900 Descending Miami Center
09:22PM 27.5925 -82.0769 330° Northwest 287 330 12,700 -1,260 Descending Miami Center
09:23PM 27.6536 -82.1172 330° Northwest 287 330 11,100 -1,500 Descending Miami Center
09:24PM 27.7144 -82.1597 328° Northwest 275 316 9,800 -1,320 Descending Miami Center
09:25PM 27.7833 -82.2167 324° Northwest 251 289 8,500 -1,260 Descending Tampa TRACON
09:26PM 27.8500 -82.2500 336° Northwest 247 284 7,300 -1,200 Descending Tampa TRACON
09:27PM 27.9000 -82.3000 319° Northwest 256 295 6,300 -1,200 Descending Tampa TRACON
09:28PM 27.9500 -82.3500 319° Northwest 269 310 5,100 -1,200 Descending Tampa TRACON
09:29PM 27.9667 -82.4167 286° West 262 302 4,000 -600 Descending Tampa TRACON
09:30PM 27.9833 -82.5000 283° West 253 291 4,000 -60 Level Tampa TRACON
09:31PM 27.9833 -82.5833 270° West 226 260 3,900 -60 Descending Tampa TRACON
09:32PM 27.9833 -82.6500 270° West 228 262 3,900  Level Tampa TRACON
09:32PM 27.9833 -82.7167 270° West 224 258 3,900  Level Tampa TRACON
09:34PM 28.0000 -82.7833 286° West 242 278 3,900  Level Tampa TRACON
09:34PM 28.0500 -82.8000 344° North 219 252 3,900 -480 Level Tampa TRACON
09:36PM 28.1167 -82.8000 360° North 218 251 3,000 -540 Descending Tampa TRACON
09:36PM 28.1167 -82.7667 90° East 176 203 2,900 -120 Descending Tampa TRACON
09:38PM 28.0667 -82.7167 139° Southeast 198 228 2,800 -420 Descending Tampa TRACON
09:39PM 28.0167 -82.7000 164° South 188 216 2,000 -900 Descending Tampa TRACON
09:40PM 27.9667 -82.7000 180° South 135 155 1,100 -900 Descending Tampa TRACON
09:41PM 27.9333 -82.7000 180° South 114 131 300 -840 Descending Tampa TRACON